sensor_id;sensor_type;location;lat;lon;timestamp;temperature;humidity
40696;DHT22;40425;51.102;17.208;2023-04-28T00:01:05;6.70;99.90
40696;DHT22;40425;51.102;17.208;2023-04-28T00:06:06;6.70;99.90
40696;DHT22;40425;51.102;17.208;2023-04-28T00:11:10;6.70;99.90
40696;DHT22;40425;51.102;17.208;2023-04-28T00:16:11;6.60;99.90
40696;DHT22;40425;51.102;17.208;2023-04-28T00:21:12;6.70;99.90
40696;DHT22;40425;51.102;17.208;2023-04-28T00:26:13;6.70;99.90
40696;DHT22;40425;51.102;17.208;2023-04-28T00:31:14;6.70;99.90
40696;DHT22;40425;51.102;17.208;2023-04-28T00:41:17;6.40;99.90
40696;DHT22;40425;51.102;17.208;2023-04-28T00:46:24;6.40;99.90
40696;DHT22;40425;51.102;17.208;2023-04-28T00:51:26;6.00;99.90
40696;DHT22;40425;51.102;17.208;2023-04-28T00:56:28;5.80;99.90
40696;DHT22;40425;51.102;17.208;2023-04-28T01:01:31;5.80;99.90
40696;DHT22;40425;51.102;17.208;2023-04-28T01:06:33;5.90;99.90
40696;DHT22;40425;51.102;17.208;2023-04-28T01:11:35;5.90;99.90
40696;DHT22;40425;51.102;17.208;2023-04-28T01:16:37;5.90;99.90
40696;DHT22;40425;51.102;17.208;2023-04-28T01:21:38;5.90;99.90
40696;DHT22;40425;51.102;17.208;2023-04-28T01:26:39;6.00;99.90
40696;DHT22;40425;51.102;17.208;2023-04-28T01:31:40;6.10;99.90
40696;DHT22;40425;51.102;17.208;2023-04-28T01:36:41;6.10;99.90
40696;DHT22;40425;51.102;17.208;2023-04-28T01:41:42;6.10;99.90
40696;DHT22;40425;51.102;17.208;2023-04-28T01:46:43;6.10;99.90
40696;DHT22;40425;51.102;17.208;2023-04-28T01:51:43;6.10;99.90
40696;DHT22;40425;51.102;17.208;2023-04-28T01:56:44;6.10;99.90
40696;DHT22;40425;51.102;17.208;2023-04-28T02:01:45;6.00;99.90
40696;DHT22;40425;51.102;17.208;2023-04-28T02:06:46;6.00;99.90
40696;DHT22;40425;51.102;17.208;2023-04-28T02:11:47;6.20;99.90
40696;DHT22;40425;51.102;17.208;2023-04-28T02:16:48;6.30;99.90
40696;DHT22;40425;51.102;17.208;2023-04-28T02:21:48;6.40;99.90
40696;DHT22;40425;51.102;17.208;2023-04-28T02:26:49;6.40;99.90
40696;DHT22;40425;51.102;17.208;2023-04-28T02:31:50;6.30;99.90
40696;DHT22;40425;51.102;17.208;2023-04-28T02:36:51;6.30;99.90
40696;DHT22;40425;51.102;17.208;2023-04-28T02:41:52;6.30;99.90
40696;DHT22;40425;51.102;17.208;2023-04-28T02:46:53;6.30;99.90
40696;DHT22;40425;51.102;17.208;2023-04-28T02:51:54;6.30;99.90
40696;DHT22;40425;51.102;17.208;2023-04-28T02:56:55;6.30;99.90
40696;DHT22;40425;51.102;17.208;2023-04-28T03:01:56;6.20;99.90
40696;DHT22;40425;51.102;17.208;2023-04-28T03:06:57;6.20;99.90
40696;DHT22;40425;51.102;17.208;2023-04-28T03:11:58;6.20;99.90
40696;DHT22;40425;51.102;17.208;2023-04-28T03:16:59;6.20;99.90
40696;DHT22;40425;51.102;17.208;2023-04-28T03:22:00;6.20;99.90
40696;DHT22;40425;51.102;17.208;2023-04-28T03:27:01;6.20;99.90
40696;DHT22;40425;51.102;17.208;2023-04-28T03:32:03;6.20;99.90
40696;DHT22;40425;51.102;17.208;2023-04-28T03:37:04;6.20;99.90
40696;DHT22;40425;51.102;17.208;2023-04-28T03:42:05;6.20;99.90
40696;DHT22;40425;51.102;17.208;2023-04-28T03:47:06;6.20;99.90
40696;DHT22;40425;51.102;17.208;2023-04-28T03:52:06;6.20;99.90
40696;DHT22;40425;51.102;17.208;2023-04-28T03:57:07;6.50;99.90
40696;DHT22;40425;51.102;17.208;2023-04-28T04:02:08;6.60;99.90
40696;DHT22;40425;51.102;17.208;2023-04-28T04:07:09;6.70;99.90
40696;DHT22;40425;51.102;17.208;2023-04-28T04:12:10;6.80;99.90
40696;DHT22;40425;51.102;17.208;2023-04-28T04:17:11;7.00;99.90
40696;DHT22;40425;51.102;17.208;2023-04-28T04:22:12;7.30;99.90
40696;DHT22;40425;51.102;17.208;2023-04-28T04:27:13;7.80;99.90
40696;DHT22;40425;51.102;17.208;2023-04-28T04:32:14;8.20;99.90
40696;DHT22;40425;51.102;17.208;2023-04-28T04:37:14;8.50;99.90
40696;DHT22;40425;51.102;17.208;2023-04-28T04:42:16;8.70;99.90
40696;DHT22;40425;51.102;17.208;2023-04-28T04:47:16;8.80;99.90
40696;DHT22;40425;51.102;17.208;2023-04-28T04:52:18;8.50;99.90
40696;DHT22;40425;51.102;17.208;2023-04-28T04:57:19;8.40;99.90
40696;DHT22;40425;51.102;17.208;2023-04-28T05:02:20;8.50;99.90
40696;DHT22;40425;51.102;17.208;2023-04-28T05:07:21;8.50;99.90
40696;DHT22;40425;51.102;17.208;2023-04-28T05:12:22;8.50;99.90
40696;DHT22;40425;51.102;17.208;2023-04-28T05:17:23;8.50;99.90
40696;DHT22;40425;51.102;17.208;2023-04-28T05:22:24;8.50;99.90
40696;DHT22;40425;51.102;17.208;2023-04-28T05:27:25;8.40;99.90
40696;DHT22;40425;51.102;17.208;2023-04-28T05:32:26;8.50;99.90
40696;DHT22;40425;51.102;17.208;2023-04-28T05:37:27;8.60;99.90
40696;DHT22;40425;51.102;17.208;2023-04-28T05:42:28;8.70;99.90
40696;DHT22;40425;51.102;17.208;2023-04-28T05:47:29;8.80;99.90
40696;DHT22;40425;51.102;17.208;2023-04-28T05:52:30;8.90;99.90
40696;DHT22;40425;51.102;17.208;2023-04-28T05:57:31;9.10;99.90
40696;DHT22;40425;51.102;17.208;2023-04-28T06:02:32;9.30;99.90
40696;DHT22;40425;51.102;17.208;2023-04-28T06:07:33;9.50;99.90
40696;DHT22;40425;51.102;17.208;2023-04-28T06:12:34;9.60;99.90
40696;DHT22;40425;51.102;17.208;2023-04-28T06:17:37;9.80;99.90
40696;DHT22;40425;51.102;17.208;2023-04-28T06:22:39;9.80;99.90
40696;DHT22;40425;51.102;17.208;2023-04-28T06:27:40;9.70;99.90
40696;DHT22;40425;51.102;17.208;2023-04-28T06:32:41;9.70;99.90
40696;DHT22;40425;51.102;17.208;2023-04-28T06:37:42;9.90;99.90
40696;DHT22;40425;51.102;17.208;2023-04-28T06:42:43;10.00;99.90
40696;DHT22;40425;51.102;17.208;2023-04-28T06:47:44;10.20;99.90
40696;DHT22;40425;51.102;17.208;2023-04-28T06:52:45;10.40;99.90
40696;DHT22;40425;51.102;17.208;2023-04-28T06:57:46;11.00;99.30
40696;DHT22;40425;51.102;17.208;2023-04-28T07:02:47;11.60;97.30
40696;DHT22;40425;51.102;17.208;2023-04-28T07:07:48;12.00;95.90
40696;DHT22;40425;51.102;17.208;2023-04-28T07:12:49;12.20;95.80
40696;DHT22;40425;51.102;17.208;2023-04-28T07:17:51;12.50;95.80
40696;DHT22;40425;51.102;17.208;2023-04-28T07:22:52;12.40;93.30
40696;DHT22;40425;51.102;17.208;2023-04-28T07:27:53;12.20;94.00
40696;DHT22;40425;51.102;17.208;2023-04-28T07:32:54;12.30;94.30
40696;DHT22;40425;51.102;17.208;2023-04-28T07:37:55;12.30;93.40
40696;DHT22;40425;51.102;17.208;2023-04-28T07:42:57;12.50;93.00
40696;DHT22;40425;51.102;17.208;2023-04-28T07:47:58;12.60;93.90
40696;DHT22;40425;51.102;17.208;2023-04-28T07:52:59;12.60;93.00
40696;DHT22;40425;51.102;17.208;2023-04-28T07:58:00;12.80;93.20
40696;DHT22;40425;51.102;17.208;2023-04-28T08:03:01;13.10;92.10
40696;DHT22;40425;51.102;17.208;2023-04-28T08:08:02;13.30;91.30
40696;DHT22;40425;51.102;17.208;2023-04-28T08:13:03;13.30;90.20
40696;DHT22;40425;51.102;17.208;2023-04-28T08:18:04;13.40;90.30
40696;DHT22;40425;51.102;17.208;2023-04-28T08:23:05;13.40;90.50
40696;DHT22;40425;51.102;17.208;2023-04-28T08:28:06;13.50;85.90
40696;DHT22;40425;51.102;17.208;2023-04-28T08:33:08;13.60;89.40
40696;DHT22;40425;51.102;17.208;2023-04-28T08:38:09;13.70;82.00
40696;DHT22;40425;51.102;17.208;2023-04-28T08:43:13;14.10;78.80
40696;DHT22;40425;51.102;17.208;2023-04-28T08:48:19;14.50;72.00
40696;DHT22;40425;51.102;17.208;2023-04-28T08:53:25;14.70;73.20
40696;DHT22;40425;51.102;17.208;2023-04-28T08:58:26;14.80;67.20
40696;DHT22;40425;51.102;17.208;2023-04-28T09:03:28;14.80;67.70
40696;DHT22;40425;51.102;17.208;2023-04-28T09:08:30;14.80;69.10
40696;DHT22;40425;51.102;17.208;2023-04-28T09:13:31;14.80;65.20
40696;DHT22;40425;51.102;17.208;2023-04-28T09:18:32;14.80;66.00
40696;DHT22;40425;51.102;17.208;2023-04-28T09:23:45;14.70;71.70
40696;DHT22;40425;51.102;17.208;2023-04-28T09:28:47;14.70;65.70
40696;DHT22;40425;51.102;17.208;2023-04-28T09:33:58;14.80;67.30
40696;DHT22;40425;51.102;17.208;2023-04-28T09:39:00;14.90;69.90
40696;DHT22;40425;51.102;17.208;2023-04-28T09:44:13;15.00;66.00
40696;DHT22;40425;51.102;17.208;2023-04-28T09:49:15;15.20;64.40
40696;DHT22;40425;51.102;17.208;2023-04-28T09:54:16;15.30;67.10
40696;DHT22;40425;51.102;17.208;2023-04-28T09:59:18;15.40;66.60
40696;DHT22;40425;51.102;17.208;2023-04-28T10:04:19;15.40;66.90
40696;DHT22;40425;51.102;17.208;2023-04-28T10:09:20;15.50;65.90
40696;DHT22;40425;51.102;17.208;2023-04-28T10:14:26;15.60;66.90
40696;DHT22;40425;51.102;17.208;2023-04-28T10:19:29;15.80;65.20
40696;DHT22;40425;51.102;17.208;2023-04-28T10:24:30;15.90;67.20
40696;DHT22;40425;51.102;17.208;2023-04-28T10:29:32;16.10;67.60
40696;DHT22;40425;51.102;17.208;2023-04-28T10:34:33;16.20;64.90
40696;DHT22;40425;51.102;17.208;2023-04-28T10:39:34;16.20;65.90
40696;DHT22;40425;51.102;17.208;2023-04-28T10:55:32;16.70;64.40
40696;DHT22;40425;51.102;17.208;2023-04-28T11:00:36;16.90;64.50
40696;DHT22;40425;51.102;17.208;2023-04-28T11:05:38;17.00;60.80
40696;DHT22;40425;51.102;17.208;2023-04-28T11:11:13;17.10;62.20
40696;DHT22;40425;51.102;17.208;2023-04-28T11:16:20;17.10;61.70
40696;DHT22;40425;51.102;17.208;2023-04-28T11:21:23;17.30;59.40
40696;DHT22;40425;51.102;17.208;2023-04-28T11:26:24;17.30;60.40
40696;DHT22;40425;51.102;17.208;2023-04-28T11:31:26;17.50;59.50
40696;DHT22;40425;51.102;17.208;2023-04-28T11:36:38;17.70;57.50
40696;DHT22;40425;51.102;17.208;2023-04-28T11:41:40;17.90;57.20
40696;DHT22;40425;51.102;17.208;2023-04-28T11:46:49;18.00;56.40
40696;DHT22;40425;51.102;17.208;2023-04-28T11:51:53;18.30;55.80
40696;DHT22;40425;51.102;17.208;2023-04-28T11:56:55;18.50;57.60
40696;DHT22;40425;51.102;17.208;2023-04-28T12:01:58;18.70;54.80
40696;DHT22;40425;51.102;17.208;2023-04-28T12:07:01;18.70;54.40
40696;DHT22;40425;51.102;17.208;2023-04-28T12:12:07;18.90;53.50
40696;DHT22;40425;51.102;17.208;2023-04-28T12:17:25;18.90;57.10
40696;DHT22;40425;51.102;17.208;2023-04-28T12:22:27;19.00;52.70
40696;DHT22;40425;51.102;17.208;2023-04-28T12:27:28;19.10;52.60
40696;DHT22;40425;51.102;17.208;2023-04-28T12:32:39;19.20;53.20
40696;DHT22;40425;51.102;17.208;2023-04-28T12:37:41;19.30;53.60
40696;DHT22;40425;51.102;17.208;2023-04-28T12:42:42;19.20;47.10
40696;DHT22;40425;51.102;17.208;2023-04-28T12:47:43;19.40;49.80
40696;DHT22;40425;51.102;17.208;2023-04-28T12:52:44;19.40;47.10
40696;DHT22;40425;51.102;17.208;2023-04-28T12:57:45;19.40;50.60
40696;DHT22;40425;51.102;17.208;2023-04-28T13:02:46;19.20;50.30
40696;DHT22;40425;51.102;17.208;2023-04-28T13:07:47;19.30;50.30
40696;DHT22;40425;51.102;17.208;2023-04-28T13:12:50;19.30;51.60
40696;DHT22;40425;51.102;17.208;2023-04-28T13:17:51;19.20;49.00
40696;DHT22;40425;51.102;17.208;2023-04-28T13:22:53;19.50;50.20
40696;DHT22;40425;51.102;17.208;2023-04-28T13:27:53;19.80;47.10
40696;DHT22;40425;51.102;17.208;2023-04-28T13:32:54;20.10;49.20
40696;DHT22;40425;51.102;17.208;2023-04-28T13:37:56;20.40;45.70
40696;DHT22;40425;51.102;17.208;2023-04-28T13:43:01;20.50;46.40
40696;DHT22;40425;51.102;17.208;2023-04-28T13:48:03;20.60;46.00
40696;DHT22;40425;51.102;17.208;2023-04-28T13:53:04;20.40;47.40
40696;DHT22;40425;51.102;17.208;2023-04-28T13:58:05;20.40;44.40
40696;DHT22;40425;51.102;17.208;2023-04-28T14:03:06;20.40;43.00
40696;DHT22;40425;51.102;17.208;2023-04-28T14:08:08;20.50;42.70
40696;DHT22;40425;51.102;17.208;2023-04-28T14:13:10;20.30;44.10
40696;DHT22;40425;51.102;17.208;2023-04-28T14:18:13;20.20;45.00
40696;DHT22;40425;51.102;17.208;2023-04-28T14:23:15;19.90;44.70
40696;DHT22;40425;51.102;17.208;2023-04-28T14:28:16;19.80;44.30
40696;DHT22;40425;51.102;17.208;2023-04-28T14:33:17;19.40;43.60
40696;DHT22;40425;51.102;17.208;2023-04-28T14:38:17;19.10;42.20
40696;DHT22;40425;51.102;17.208;2023-04-28T14:43:18;19.00;45.40
40696;DHT22;40425;51.102;17.208;2023-04-28T14:48:19;19.00;44.50
40696;DHT22;40425;51.102;17.208;2023-04-28T14:53:21;18.90;44.00
40696;DHT22;40425;51.102;17.208;2023-04-28T14:58:23;18.80;45.70
40696;DHT22;40425;51.102;17.208;2023-04-28T15:03:24;18.70;44.30
40696;DHT22;40425;51.102;17.208;2023-04-28T15:08:26;18.70;46.70
40696;DHT22;40425;51.102;17.208;2023-04-28T15:13:27;18.50;45.70
40696;DHT22;40425;51.102;17.208;2023-04-28T15:18:28;18.50;45.40
40696;DHT22;40425;51.102;17.208;2023-04-28T15:23:29;18.70;47.20
40696;DHT22;40425;51.102;17.208;2023-04-28T15:28:31;18.70;44.20
40696;DHT22;40425;51.102;17.208;2023-04-28T15:33:32;18.80;45.30
40696;DHT22;40425;51.102;17.208;2023-04-28T15:38:33;18.80;45.70
40696;DHT22;40425;51.102;17.208;2023-04-28T15:43:34;18.70;45.10
40696;DHT22;40425;51.102;17.208;2023-04-28T15:48:37;18.70;46.70
40696;DHT22;40425;51.102;17.208;2023-04-28T15:53:39;18.60;45.40
40696;DHT22;40425;51.102;17.208;2023-04-28T15:58:40;18.60;44.60
40696;DHT22;40425;51.102;17.208;2023-04-28T16:03:40;18.30;44.50
40696;DHT22;40425;51.102;17.208;2023-04-28T16:08:41;18.20;45.30
40696;DHT22;40425;51.102;17.208;2023-04-28T16:13:43;18.30;46.40
40696;DHT22;40425;51.102;17.208;2023-04-28T16:18:44;18.40;46.40
40696;DHT22;40425;51.102;17.208;2023-04-28T16:23:45;18.40;45.30
40696;DHT22;40425;51.102;17.208;2023-04-28T16:28:46;18.40;45.80
40696;DHT22;40425;51.102;17.208;2023-04-28T16:33:47;18.10;46.70
40696;DHT22;40425;51.102;17.208;2023-04-28T16:38:48;17.80;46.50
40696;DHT22;40425;51.102;17.208;2023-04-28T16:43:49;17.70;48.40
40696;DHT22;40425;51.102;17.208;2023-04-28T16:48:50;17.40;49.00
40696;DHT22;40425;51.102;17.208;2023-04-28T16:53:50;17.30;49.70
40696;DHT22;40425;51.102;17.208;2023-04-28T16:58:51;17.30;49.80
40696;DHT22;40425;51.102;17.208;2023-04-28T17:03:52;17.20;51.20
40696;DHT22;40425;51.102;17.208;2023-04-28T17:08:53;17.20;51.60
40696;DHT22;40425;51.102;17.208;2023-04-28T17:13:54;17.00;52.00
40696;DHT22;40425;51.102;17.208;2023-04-28T17:18:55;16.90;53.30
40696;DHT22;40425;51.102;17.208;2023-04-28T17:23:57;16.70;53.20
40696;DHT22;40425;51.102;17.208;2023-04-28T17:28:58;16.50;54.10
40696;DHT22;40425;51.102;17.208;2023-04-28T17:33:59;16.40;54.40
40696;DHT22;40425;51.102;17.208;2023-04-28T17:39:01;16.30;55.00
40696;DHT22;40425;51.102;17.208;2023-04-28T17:44:03;16.30;56.00
40696;DHT22;40425;51.102;17.208;2023-04-28T17:49:04;16.30;56.80
40696;DHT22;40425;51.102;17.208;2023-04-28T17:54:05;16.20;58.00
40696;DHT22;40425;51.102;17.208;2023-04-28T17:59:08;16.10;58.70
40696;DHT22;40425;51.102;17.208;2023-04-28T18:04:09;16.00;58.20
40696;DHT22;40425;51.102;17.208;2023-04-28T18:09:10;15.90;59.00
40696;DHT22;40425;51.102;17.208;2023-04-28T18:14:11;15.80;59.10
40696;DHT22;40425;51.102;17.208;2023-04-28T18:19:14;15.60;60.00
40696;DHT22;40425;51.102;17.208;2023-04-28T18:24:15;15.50;61.10
40696;DHT22;40425;51.102;17.208;2023-04-28T18:29:16;15.40;62.60
40696;DHT22;40425;51.102;17.208;2023-04-28T18:34:18;15.10;63.60
40696;DHT22;40425;51.102;17.208;2023-04-28T18:39:20;14.80;66.20
40696;DHT22;40425;51.102;17.208;2023-04-28T18:44:22;14.60;67.70
40696;DHT22;40425;51.102;17.208;2023-04-28T18:49:23;14.50;68.50
40696;DHT22;40425;51.102;17.208;2023-04-28T18:54:25;14.30;69.20
40696;DHT22;40425;51.102;17.208;2023-04-28T18:59:26;14.30;70.40
40696;DHT22;40425;51.102;17.208;2023-04-28T19:04:27;14.20;71.60
40696;DHT22;40425;51.102;17.208;2023-04-28T19:09:29;14.20;73.60
40696;DHT22;40425;51.102;17.208;2023-04-28T19:14:30;14.10;74.90
40696;DHT22;40425;51.102;17.208;2023-04-28T19:19:31;14.00;77.10
40696;DHT22;40425;51.102;17.208;2023-04-28T19:24:33;13.90;78.70
40696;DHT22;40425;51.102;17.208;2023-04-28T19:29:36;13.80;79.30
40696;DHT22;40425;51.102;17.208;2023-04-28T19:34:37;13.80;79.40
40696;DHT22;40425;51.102;17.208;2023-04-28T19:39:38;13.70;80.00
40696;DHT22;40425;51.102;17.208;2023-04-28T19:44:39;13.70;81.20
40696;DHT22;40425;51.102;17.208;2023-04-28T19:49:41;13.80;81.30
40696;DHT22;40425;51.102;17.208;2023-04-28T19:54:45;13.70;82.10
40696;DHT22;40425;51.102;17.208;2023-04-28T19:59:48;13.70;83.40
40696;DHT22;40425;51.102;17.208;2023-04-28T20:04:49;13.60;84.20
40696;DHT22;40425;51.102;17.208;2023-04-28T20:09:52;13.50;85.10
40696;DHT22;40425;51.102;17.208;2023-04-28T20:14:56;13.50;85.70
40696;DHT22;40425;51.102;17.208;2023-04-28T20:19:58;13.40;85.80
40696;DHT22;40425;51.102;17.208;2023-04-28T20:25:00;13.30;86.30
40696;DHT22;40425;51.102;17.208;2023-04-28T20:30:06;13.30;87.20
40696;DHT22;40425;51.102;17.208;2023-04-28T20:35:08;13.30;87.40
40696;DHT22;40425;51.102;17.208;2023-04-28T20:40:10;13.20;88.90
40696;DHT22;40425;51.102;17.208;2023-04-28T20:45:12;13.10;90.10
40696;DHT22;40425;51.102;17.208;2023-04-28T20:50:14;13.00;90.70
40696;DHT22;40425;51.102;17.208;2023-04-28T20:55:17;12.90;91.40
40696;DHT22;40425;51.102;17.208;2023-04-28T21:00:20;12.90;91.90
40696;DHT22;40425;51.102;17.208;2023-04-28T21:05:23;12.90;92.30
40696;DHT22;40425;51.102;17.208;2023-04-28T21:10:24;12.90;92.70
40696;DHT22;40425;51.102;17.208;2023-04-28T21:15:25;12.80;93.10
40696;DHT22;40425;51.102;17.208;2023-04-28T21:20:28;12.70;93.90
40696;DHT22;40425;51.102;17.208;2023-04-28T21:25:32;12.60;94.90
40696;DHT22;40425;51.102;17.208;2023-04-28T21:30:37;12.50;95.30
40696;DHT22;40425;51.102;17.208;2023-04-28T21:35:38;12.60;96.20
40696;DHT22;40425;51.102;17.208;2023-04-28T21:40:39;12.60;96.40
40696;DHT22;40425;51.102;17.208;2023-04-28T21:45:40;12.60;96.90
40696;DHT22;40425;51.102;17.208;2023-04-28T21:50:41;12.60;97.10
40696;DHT22;40425;51.102;17.208;2023-04-28T21:55:43;12.60;97.40
40696;DHT22;40425;51.102;17.208;2023-04-28T22:00:45;12.60;97.80
40696;DHT22;40425;51.102;17.208;2023-04-28T22:05:49;12.60;98.20
40696;DHT22;40425;51.102;17.208;2023-04-28T22:10:50;12.50;98.80
40696;DHT22;40425;51.102;17.208;2023-04-28T22:15:51;12.60;99.20
40696;DHT22;40425;51.102;17.208;2023-04-28T22:20:52;12.50;99.90
40696;DHT22;40425;51.102;17.208;2023-04-28T22:25:56;12.40;99.90
40696;DHT22;40425;51.102;17.208;2023-04-28T22:30:58;12.30;99.90
40696;DHT22;40425;51.102;17.208;2023-04-28T22:35:59;12.30;99.90
40696;DHT22;40425;51.102;17.208;2023-04-28T22:41:00;12.20;99.90
40696;DHT22;40425;51.102;17.208;2023-04-28T22:46:01;12.20;99.90
40696;DHT22;40425;51.102;17.208;2023-04-28T22:51:02;12.10;99.90
40696;DHT22;40425;51.102;17.208;2023-04-28T22:56:03;12.20;99.90
40696;DHT22;40425;51.102;17.208;2023-04-28T23:01:04;12.10;99.90
40696;DHT22;40425;51.102;17.208;2023-04-28T23:06:06;12.10;99.90
40696;DHT22;40425;51.102;17.208;2023-04-28T23:11:07;12.10;99.90
40696;DHT22;40425;51.102;17.208;2023-04-28T23:16:08;12.00;99.90
40696;DHT22;40425;51.102;17.208;2023-04-28T23:21:09;12.00;99.90
40696;DHT22;40425;51.102;17.208;2023-04-28T23:26:11;12.10;99.90
40696;DHT22;40425;51.102;17.208;2023-04-28T23:31:11;12.10;99.90
40696;DHT22;40425;51.102;17.208;2023-04-28T23:36:12;12.10;99.90
40696;DHT22;40425;51.102;17.208;2023-04-28T23:41:13;12.10;99.90
40696;DHT22;40425;51.102;17.208;2023-04-28T23:46:14;12.10;99.90
40696;DHT22;40425;51.102;17.208;2023-04-28T23:51:15;12.10;99.90
40696;DHT22;40425;51.102;17.208;2023-04-28T23:56:16;12.10;99.90
